Time;durP1;ratioP1;P1;durP2;ratioP2;P2;SDS_P1;SDS_P2;PMS_P1;PMS_P2;Temp;Humidity;BMP_temperature;BMP_pressure;BME280_temperature;BME280_humidity;BME280_pressure;Samples;Min_cycle;Max_cycle;Signal;HPM_P1;HPM_P2
2022/10/19 00:00:20;;;;;;;14.10;5.40;;;;;;;10.03;100.00;102711.13;5011717;28;20022;-68
2022/10/19 00:02:46;;;;;;;18.98;5.75;;;;;;;10.05;100.00;102704.50;5011489;28;20037;-69
2022/10/19 00:05:11;;;;;;;15.05;5.22;;;;;;;10.03;100.00;102701.16;5012427;28;20110;-69
2022/10/19 00:07:36;;;;;;;14.82;5.50;;;;;;;10.03;100.00;102701.16;5012712;28;20022;-69
2022/10/19 00:10:03;;;;;;;14.63;5.40;;;;;;;9.97;100.00;102699.16;5012961;28;20026;-69
2022/10/19 00:12:29;;;;;;;11.93;5.28;;;;;;;9.93;100.00;102703.22;5012688;28;20030;-69
2022/10/19 00:14:54;;;;;;;15.30;5.30;;;;;;;9.91;100.00;102695.28;5011358;28;20026;-69
2022/10/19 00:17:19;;;;;;;12.90;5.35;;;;;;;9.84;100.00;102688.03;5012488;28;20032;-69
2022/10/19 00:19:44;;;;;;;17.25;5.88;;;;;;;9.89;100.00;102701.91;5012662;28;20033;-69
2022/10/19 00:22:10;;;;;;;14.63;5.45;;;;;;;9.78;100.00;102691.44;5012471;28;20071;-69
2022/10/19 00:24:35;;;;;;;15.65;5.80;;;;;;;9.76;100.00;102700.56;5011198;28;20030;-69
2022/10/19 00:27:00;;;;;;;14.23;6.03;;;;;;;9.74;100.00;102685.56;5012526;28;20381;-69
2022/10/19 00:29:26;;;;;;;17.27;5.95;;;;;;;9.74;100.00;102688.25;5010889;28;20037;-69
2022/10/19 00:31:51;;;;;;;15.68;5.55;;;;;;;9.74;100.00;102688.25;5012251;28;20052;-69
2022/10/19 00:34:16;;;;;;;16.33;6.22;;;;;;;9.73;100.00;102692.81;5015152;28;20037;-69
2022/10/19 00:36:42;;;;;;;18.08;5.88;;;;;;;9.67;100.00;102676.44;5016277;28;20049;-69
2022/10/19 00:39:11;;;;;;;17.58;6.40;;;;;;;9.68;100.00;102681.69;5016258;28;20528;-69
2022/10/19 00:41:37;;;;;;;17.23;6.05;;;;;;;9.65;100.00;102679.34;5016152;28;20485;-69
2022/10/19 00:44:24;;;;;;;16.10;5.95;;;;;;;9.67;100.00;102685.41;5014758;28;20342;-69
2022/10/19 00:46:49;;;;;;;11.93;5.20;;;;;;;9.61;100.00;102686.09;5015587;28;20030;-69
2022/10/19 00:49:18;;;;;;;13.90;5.28;;;;;;;9.64;100.00;102695.72;5015854;28;20053;-68
2022/10/19 00:51:48;;;;;;;16.60;6.10;;;;;;;9.53;100.00;102688.84;5015720;28;20506;-67
2022/10/19 00:54:15;;;;;;;11.73;5.43;;;;;;;9.49;100.00;102690.19;5014446;28;20033;-69
2022/10/19 00:56:42;;;;;;;15.80;6.18;;;;;;;9.49;100.00;102688.31;5015687;28;20029;-69
2022/10/19 00:59:09;;;;;;;11.88;5.30;;;;;;;9.43;100.00;102691.72;5016084;28;20084;-68
2022/10/19 01:01:35;;;;;;;15.73;5.80;;;;;;;9.50;100.00;102694.59;5013113;28;20080;-68
2022/10/19 01:04:02;;;;;;;10.98;5.30;;;;;;;9.47;100.00;102695.75;5015745;28;20409;-69
2022/10/19 01:06:28;;;;;;;13.25;5.72;;;;;;;9.42;100.00;102690.03;5014219;28;20076;-69
2022/10/19 01:08:53;;;;;;;14.80;5.55;;;;;;;9.43;100.00;102688.19;5014406;28;20026;-69
2022/10/19 01:11:55;;;;;;;12.57;5.47;;;;;;;9.51;100.00;102690.84;5015691;28;20475;-70
2022/10/19 01:14:27;;;;;;;;;;;;;;;9.63;100.00;102692.19;5015999;28;20037;-69
2022/10/19 01:17:20;;;;;;;11.95;5.47;;;;;;;9.47;100.00;102684.94;5024717;28;19909;-69
2022/10/19 01:20:03;;;;;;;13.77;5.30;;;;;;;9.43;100.00;102683.59;5027095;28;20495;-69
2022/10/19 01:22:37;;;;;;;13.82;5.63;;;;;;;9.36;100.00;102696.09;5020308;28;20373;-70
2022/10/19 01:25:05;;;;;;;12.15;5.38;;;;;;;9.38;100.00;102686.81;5033371;28;20033;-71
2022/10/19 01:27:42;;;;;;;13.73;5.60;;;;;;;9.36;100.00;102690.69;5034323;28;20120;-69
2022/10/19 01:30:12;;;;;;;13.55;6.00;;;;;;;9.24;100.00;102687.53;5034717;28;20025;-69
2022/10/19 01:33:01;;;;;;;13.98;6.05;;;;;;;9.36;100.00;102683.47;5034564;28;20061;-70
2022/10/19 01:35:54;;;;;;;15.70;5.55;;;;;;;9.30;100.00;102678.75;5033559;28;20407;-69
2022/10/19 01:38:55;;;;;;;13.10;5.60;;;;;;;9.35;100.00;102678.22;5034644;28;20029;-70
2022/10/19 01:41:46;;;;;;;13.30;5.70;;;;;;;9.27;100.00;102672.81;5034746;28;20357;-70
2022/10/19 01:44:21;;;;;;;12.23;5.65;;;;;;;9.19;100.00;102685.34;5033911;28;20275;-69
2022/10/19 01:46:59;;;;;;;9.07;5.20;;;;;;;9.19;100.00;102679.94;5034399;28;20353;-70
2022/10/19 01:49:47;;;;;;;10.73;5.65;;;;;;;9.23;100.00;102683.16;5034545;28;20046;-70
2022/10/19 01:52:17;;;;;;;13.07;5.60;;;;;;;9.14;100.00;102685.00;5034684;28;20108;-70
2022/10/19 01:54:47;;;;;;;15.32;5.65;;;;;;;9.05;100.00;102677.94;5034610;28;20036;-70
2022/10/19 01:57:18;;;;;;;12.55;5.93;;;;;;;9.08;100.00;102674.06;5034591;28;20025;-69
2022/10/19 01:59:45;;;;;;;16.53;6.10;;;;;;;9.09;100.00;102670.31;5034564;28;20047;-70
2022/10/19 02:02:13;;;;;;;10.85;5.75;;;;;;;9.07;100.00;102662.38;5031968;28;20025;-69
2022/10/19 02:04:39;;;;;;;16.88;6.10;;;;;;;9.04;100.00;102660.03;5034201;28;20017;-69
2022/10/19 02:07:07;;;;;;;11.52;5.75;;;;;;;9.08;100.00;102663.25;5034538;28;20026;-69
2022/10/19 02:09:32;;;;;;;12.07;6.18;;;;;;;9.05;100.00;102654.44;5034129;28;20075;-69
2022/10/19 02:12:02;;;;;;;15.77;6.45;;;;;;;8.98;100.00;102653.47;5034322;28;20029;-69
2022/10/19 02:14:32;;;;;;;14.25;5.82;;;;;;;8.95;100.00;102645.72;5032718;28;20360;-70
2022/10/19 02:17:06;;;;;;;12.88;5.45;;;;;;;9.01;100.00;102642.31;5034214;28;20103;-70
2022/10/19 02:19:32;;;;;;;12.48;6.15;;;;;;;8.96;100.00;102639.28;5033956;28;20029;-69
2022/10/19 02:21:58;;;;;;;13.27;6.20;;;;;;;8.98;100.00;102633.69;5034109;28;20025;-69
2022/10/19 02:24:23;;;;;;;12.68;6.10;;;;;;;8.99;100.00;102638.09;5032466;28;20111;-68
2022/10/19 02:26:49;;;;;;;13.80;5.95;;;;;;;8.99;100.00;102627.31;5032420;28;20184;-69
2022/10/19 02:29:15;;;;;;;13.65;6.00;;;;;;;8.98;100.00;102631.88;5033854;28;20030;-69
2022/10/19 02:31:41;;;;;;;15.13;6.10;;;;;;;8.99;100.00;102628.13;5032475;28;20026;-69
2022/10/19 02:34:06;;;;;;;13.05;5.72;;;;;;;8.94;100.00;102622.41;5033846;28;20029;-68
2022/10/19 02:36:32;;;;;;;12.15;5.95;;;;;;;8.92;100.00;102620.88;5032329;28;20025;-69
2022/10/19 02:38:57;;;;;;;15.18;6.45;;;;;;;8.85;100.00;102620.75;5032497;28;20344;-70
2022/10/19 02:41:43;;;;;;;11.95;5.85;;;;;;;8.86;100.00;102611.59;5033491;28;20369;-69
2022/10/19 02:44:17;;;;;;;19.08;5.97;;;;;;;8.78;100.00;102619.72;5033590;28;20022;-69
2022/10/19 02:46:46;;;;;;;12.10;5.20;;;;;;;8.71;100.00;102618.72;5032121;28;20017;-70
2022/10/19 02:49:12;;;;;;;15.57;6.13;;;;;;;8.70;100.00;102612.47;5033264;28;20522;-69
2022/10/19 02:51:53;;;;;;;11.32;5.28;;;;;;;8.73;100.00;102604.03;5033022;28;20029;-69
2022/10/19 02:54:19;;;;;;;14.55;5.75;;;;;;;8.69;100.00;102611.63;5033642;28;20369;-69
2022/10/19 02:56:44;;;;;;;13.15;5.82;;;;;;;8.68;100.00;102620.75;5033164;28;20021;-69
2022/10/19 02:59:09;;;;;;;13.43;5.55;;;;;;;8.73;100.00;102617.53;5034037;28;20025;-69
2022/10/19 03:01:34;;;;;;;12.55;5.28;;;;;;;8.73;100.00;102612.13;5030451;28;20025;-69
2022/10/19 03:04:00;;;;;;;12.55;5.30;;;;;;;8.69;100.00;102611.63;5033048;28;20018;-69
2022/10/19 03:06:25;;;;;;;12.85;5.15;;;;;;;8.67;100.00;102607.41;5033051;28;20104;-69
2022/10/19 03:08:50;;;;;;;14.73;5.05;;;;;;;8.72;100.00;102609.59;5033249;28;20449;-70
2022/10/19 03:11:15;;;;;;;11.75;4.88;;;;;;;8.71;100.00;102613.31;5033151;28;20025;-69
2022/10/19 03:13:42;;;;;;;13.70;5.50;;;;;;;8.69;100.00;102613.47;5031560;28;20116;-69
2022/10/19 03:16:09;;;;;;;13.02;5.15;;;;;;;8.69;100.00;102616.19;5032791;28;20028;-69
2022/10/19 03:18:34;;;;;;;12.95;5.10;;;;;;;8.69;100.00;102625.09;5031497;28;20033;-69
2022/10/19 03:21:06;;;;;;;10.77;4.97;;;;;;;8.68;100.00;102620.75;5033079;28;20029;-69
2022/10/19 03:23:31;;;;;;;11.90;4.95;;;;;;;8.63;100.00;102624.94;5032718;28;20053;-68
2022/10/19 03:25:56;;;;;;;11.52;4.78;;;;;;;8.62;100.00;102620.56;5031433;28;20073;-69
2022/10/19 03:28:22;;;;;;;10.80;4.90;;;;;;;8.63;100.00;102620.38;5032659;28;20445;-69
2022/10/19 03:30:47;;;;;;;11.70;4.97;;;;;;;8.59;100.00;102616.38;5031607;28;20025;-69
2022/10/19 03:33:12;;;;;;;14.32;5.25;;;;;;;8.54;100.00;102609.78;5032575;28;20025;-70
2022/10/19 03:35:37;;;;;;;13.60;5.25;;;;;;;8.52;100.00;102609.94;5032595;28;20453;-69
2022/10/19 03:38:03;;;;;;;11.27;4.85;;;;;;;8.55;100.00;102609.59;5032820;28;20029;-69
2022/10/19 03:40:28;;;;;;;13.27;5.13;;;;;;;8.51;100.00;102616.34;5032560;28;20017;-69
2022/10/19 03:42:53;;;;;;;8.73;4.38;;;;;;;8.51;100.00;102611.81;5032713;28;20072;-69
2022/10/19 03:45:19;;;;;;;11.90;4.85;;;;;;;8.48;100.00;102604.06;5032266;28;20025;-69
2022/10/19 03:47:48;;;;;;;7.82;4.57;;;;;;;8.45;100.00;102611.63;5032488;28;20071;-69
2022/10/19 03:50:15;;;;;;;13.68;5.10;;;;;;;8.32;100.00;102610.22;5032782;28;20452;-69
2022/10/19 03:52:41;;;;;;;8.80;4.60;;;;;;;8.30;100.00;102617.66;5032418;28;20029;-69
2022/10/19 03:55:06;;;;;;;10.13;4.70;;;;;;;8.35;100.00;102614.47;5031337;28;20026;-69
2022/10/19 03:57:32;;;;;;;9.85;5.00;;;;;;;8.37;100.00;102617.00;5032326;28;20449;-69
2022/10/19 03:59:57;;;;;;;14.55;4.65;;;;;;;8.39;100.00;102614.97;5032572;28;20155;-69
2022/10/19 04:02:22;;;;;;;14.13;4.40;;;;;;;8.32;100.00;102626.41;5029808;28;20021;-69
2022/10/19 04:04:47;;;;;;;13.25;4.57;;;;;;;8.23;100.00;102618.47;5032307;28;20378;-69
2022/10/19 04:07:13;;;;;;;11.38;4.72;;;;;;;8.23;100.00;102618.47;5032784;28;20033;-69
2022/10/19 04:09:38;;;;;;;8.13;4.40;;;;;;;8.27;100.00;102627.91;5035642;28;20375;-69
2022/10/19 04:12:03;;;;;;;12.85;5.18;;;;;;;8.24;100.00;102620.16;5036599;28;20037;-69
2022/10/19 04:14:29;;;;;;;9.93;4.78;;;;;;;8.24;100.00;102621.00;5036243;28;20032;-69
2022/10/19 04:16:54;;;;;;;15.48;5.72;;;;;;;8.23;100.00;102613.94;5036480;28;20100;-70
2022/10/19 04:19:19;;;;;;;11.18;4.78;;;;;;;8.24;100.00;102610.19;5036495;28;20052;-69
2022/10/19 04:21:47;;;;;;;12.68;5.35;;;;;;;8.23;100.00;102602.28;5035737;28;20025;-69
2022/10/19 04:24:15;;;;;;;9.30;5.20;;;;;;;8.23;100.00;102613.06;5036274;28;20056;-69
2022/10/19 04:26:43;;;;;;;13.85;6.40;;;;;;;8.14;100.00;102614.94;5036153;28;20458;-69
2022/10/19 04:29:09;;;;;;;14.07;5.47;;;;;;;8.19;100.00;102614.44;5036159;28;20028;-69
2022/10/19 04:31:36;;;;;;;12.48;5.50;;;;;;;8.18;100.00;102613.56;5035953;28;20051;-69
2022/10/19 04:34:01;;;;;;;16.40;5.63;;;;;;;8.19;100.00;102606.34;5036138;28;20025;-69
2022/10/19 04:36:26;;;;;;;15.80;5.72;;;;;;;8.16;100.00;102602.13;5035881;28;20025;-69
2022/10/19 04:38:52;;;;;;;22.35;5.95;;;;;;;8.18;100.00;102597.38;5035798;28;20106;-69
2022/10/19 04:41:19;;;;;;;25.10;6.18;;;;;;;8.19;100.00;102599.09;5036000;28;20030;-70
2022/10/19 04:43:45;;;;;;;17.67;6.25;;;;;;;8.16;100.00;102599.41;5035671;28;20036;-69
2022/10/19 04:46:16;;;;;;;12.15;5.05;;;;;;;8.12;100.00;102600.75;5034660;28;20029;-69
2022/10/19 04:48:42;;;;;;;12.15;5.40;;;;;;;8.06;100.00;102604.09;5035989;28;20033;-69
2022/10/19 04:51:08;;;;;;;13.52;5.75;;;;;;;8.08;100.00;102604.81;5036128;28;20441;-69
2022/10/19 04:53:35;;;;;;;20.00;5.70;;;;;;;8.03;100.00;102604.44;5034304;28;20071;-69
2022/10/19 04:56:05;;;;;;;22.83;6.20;;;;;;;7.97;100.00;102611.31;5034482;28;20108;-69
2022/10/19 04:58:30;;;;;;;10.48;5.55;;;;;;;7.98;100.00;102608.47;5035649;28;20028;-69
2022/10/19 05:00:55;;;;;;;16.52;5.35;;;;;;;7.98;100.00;102610.31;5033286;28;20041;-69
2022/10/19 05:03:21;;;;;;;14.57;5.72;;;;;;;7.99;100.00;102609.34;5035920;28;20029;-69
2022/10/19 05:05:46;;;;;;;15.48;5.40;;;;;;;7.89;100.00;102601.38;5035252;28;20037;-70
2022/10/19 05:08:11;;;;;;;15.90;5.40;;;;;;;7.90;100.00;102603.06;5035587;28;20493;-69
2022/10/19 05:10:37;;;;;;;17.77;5.97;;;;;;;7.89;100.00;102604.06;5035268;28;20021;-69
2022/10/19 05:13:03;;;;;;;14.85;6.68;;;;;;;7.83;100.00;102604.72;5035208;28;20449;-69
2022/10/19 05:15:29;;;;;;;15.68;6.30;;;;;;;7.80;100.00;102602.34;5035268;28;20033;-69
2022/10/19 05:17:54;;;;;;;12.23;5.63;;;;;;;7.84;100.00;102603.72;5035483;28;20029;-69
2022/10/19 05:20:20;;;;;;;17.35;5.78;;;;;;;7.80;100.00;102602.34;5035148;28;20067;-69
2022/10/19 05:22:45;;;;;;;13.60;5.78;;;;;;;7.85;100.00;102600.03;5033741;28;20056;-69
2022/10/19 05:25:10;;;;;;;16.08;6.70;;;;;;;7.84;100.00;102598.34;5033893;28;20033;-69
2022/10/19 05:27:36;;;;;;;11.68;6.60;;;;;;;7.75;100.00;102593.94;5035082;28;20053;-69
2022/10/19 05:30:01;;;;;;;10.85;5.78;;;;;;;7.79;100.00;102579.97;5035080;28;20029;-69
2022/10/19 05:32:27;;;;;;;13.18;6.47;;;;;;;7.81;100.00;102577.09;5033851;28;20036;-69
2022/10/19 05:34:52;;;;;;;18.05;7.10;;;;;;;7.78;100.00;102580.13;5034825;28;20449;-69
2022/10/19 05:37:17;;;;;;;16.40;6.70;;;;;;;7.83;100.00;102577.78;5033765;28;20442;-69
2022/10/19 05:39:43;;;;;;;31.90;18.33;;;;;;;7.79;100.00;102579.97;5033409;28;20214;-69
2022/10/19 05:42:08;;;;;;;40.65;24.83;;;;;;;7.80;100.00;102576.28;5034900;28;20026;-70
2022/10/19 05:44:34;;;;;;;87.47;60.25;;;;;;;7.81;100.00;102574.41;5033295;28;20025;-70
2022/10/19 05:47:00;;;;;;;40.53;28.15;;;;;;;7.74;100.00;102579.59;5033542;28;20102;-69
2022/10/19 05:49:25;;;;;;;24.80;17.05;;;;;;;7.76;100.00;102577.59;5034797;28;20444;-69
2022/10/19 05:51:51;;;;;;;36.45;30.23;;;;;;;7.76;100.00;102584.81;5034389;28;20024;-69
2022/10/19 05:54:17;;;;;;;59.70;45.90;;;;;;;7.73;100.00;102582.44;5034294;28;20124;-69
2022/10/19 05:56:42;;;;;;;58.20;45.05;;;;;;;7.71;100.00;102581.78;5034487;28;20029;-70
2022/10/19 05:59:12;;;;;;;37.63;30.58;;;;;;;7.67;100.00;102572.31;5033328;28;20079;-69
2022/10/19 06:01:37;;;;;;;33.08;24.33;;;;;;;7.72;100.00;102576.22;5031800;28;20030;-69
2022/10/19 06:04:03;;;;;;;17.65;9.65;;;;;;;7.69;100.00;102575.72;5034522;28;20115;-69
2022/10/19 06:06:29;;;;;;;20.02;10.95;;;;;;;7.69;100.00;102571.16;5034300;28;20022;-69
2022/10/19 06:08:56;;;;;;;14.15;7.63;;;;;;;7.69;100.00;102568.47;5034253;28;20476;-69
2022/10/19 06:11:24;;;;;;;14.65;7.40;;;;;;;7.68;100.00;102569.47;5034343;28;20457;-69
2022/10/19 06:13:54;;;;;;;11.80;7.18;;;;;;;7.63;100.00;102556.47;5034364;28;20029;-69
2022/10/19 06:16:21;;;;;;;14.43;7.32;;;;;;;7.60;100.00;102567.59;5034262;28;20475;-69
2022/10/19 06:18:47;;;;;;;16.33;7.55;;;;;;;7.59;100.00;102557.84;5034030;28;20030;-69
2022/10/19 06:21:14;;;;;;;12.93;7.68;;;;;;;7.60;100.00;102564.91;5034203;28;20104;-69
2022/10/19 06:23:40;;;;;;;12.10;7.40;;;;;;;7.62;100.00;102568.28;5033821;28;20052;-69
2022/10/19 06:26:08;;;;;;;13.50;7.43;;;;;;;7.58;100.00;102553.44;5033963;28;20461;-69
2022/10/19 06:28:35;;;;;;;14.07;7.43;;;;;;;7.61;100.00;102561.22;5033709;28;20034;-69
2022/10/19 06:31:01;;;;;;;13.48;7.68;;;;;;;7.65;100.00;102556.31;5033636;28;20033;-69
2022/10/19 06:33:28;;;;;;;13.75;8.23;;;;;;;7.64;100.00;102573.53;5034236;28;20041;-69
2022/10/19 06:35:54;;;;;;;14.68;8.68;;;;;;;7.62;100.00;102572.81;5033677;28;20040;-69
2022/10/19 06:38:19;;;;;;;19.20;10.00;;;;;;;7.70;100.00;102572.00;5033876;28;20108;-69
2022/10/19 06:40:44;;;;;;;19.73;13.10;;;;;;;7.70;100.00;102570.16;5033573;28;20370;-70
2022/10/19 06:43:10;;;;;;;16.67;9.88;;;;;;;7.71;100.00;102562.91;5033745;28;20105;-69
2022/10/19 06:45:38;;;;;;;20.02;11.98;;;;;;;7.71;100.00;102571.00;5032120;28;20033;-69
2022/10/19 06:48:04;;;;;;;17.92;8.73;;;;;;;7.74;100.00;102567.97;5032330;28;20031;-69
2022/10/19 06:50:31;;;;;;;17.60;8.15;;;;;;;7.72;100.00;102575.41;5032330;28;20052;-69
2022/10/19 06:52:57;;;;;;;16.38;10.23;;;;;;;7.76;100.00;102569.50;5032107;28;20391;-69
2022/10/19 06:55:23;;;;;;;15.55;8.73;;;;;;;7.77;100.00;102578.44;5033556;28;20483;-69
2022/10/19 06:57:48;;;;;;;16.15;8.60;;;;;;;7.79;100.00;102576.44;5033307;28;20033;-69
2022/10/19 07:00:14;;;;;;;13.10;8.48;;;;;;;7.78;100.00;102570.19;5033147;28;20064;-69
2022/10/19 07:02:39;;;;;;;11.02;7.22;;;;;;;7.84;100.00;102574.06;5029411;28;20480;-70
2022/10/19 07:05:05;;;;;;;18.17;8.18;;;;;;;7.89;100.00;102577.09;5033357;28;20051;-68
2022/10/19 07:07:30;;;;;;;14.52;7.70;;;;;;;7.86;100.00;102568.53;5033274;28;20040;-69
2022/10/19 07:09:56;;;;;;;15.52;8.00;;;;;;;7.85;100.00;102570.38;5031744;28;20025;-68
2022/10/19 07:12:21;;;;;;;15.65;7.60;;;;;;;7.88;100.00;102567.34;5031940;28;20024;-69
2022/10/19 07:14:46;;;;;;;14.75;7.95;;;;;;;7.91;100.00;102569.72;5032968;28;20026;-70
2022/10/19 07:17:12;;;;;;;14.13;8.20;;;;;;;7.92;100.00;102571.38;5033191;28;20025;-69
2022/10/19 07:19:37;;;;;;;18.50;8.60;;;;;;;7.95;100.00;102576.44;5032818;28;20037;-69
2022/10/19 07:22:03;;;;;;;15.23;8.13;;;;;;;8.02;100.00;102575.78;5032765;28;20021;-68
2022/10/19 07:24:28;;;;;;;16.15;7.95;;;;;;;8.06;100.00;102572.63;5032971;28;20029;-69
2022/10/19 07:26:54;;;;;;;16.75;7.68;;;;;;;8.10;100.00;102573.94;5031254;28;20049;-69
2022/10/19 07:29:19;;;;;;;19.58;7.97;;;;;;;8.17;100.00;102574.16;5031601;28;20025;-69
2022/10/19 07:31:45;;;;;;;16.95;7.90;;;;;;;8.16;100.00;102578.69;5033006;28;20384;-69
2022/10/19 07:34:11;;;;;;;16.38;8.23;;;;;;;8.21;100.00;102580.88;5031637;28;20480;-69
2022/10/19 07:36:38;;;;;;;14.05;7.65;;;;;;;8.28;100.00;102573.81;5031269;28;20079;-69
2022/10/19 07:39:06;;;;;;;16.73;7.72;;;;;;;8.32;100.00;102572.47;5031566;28;20445;-69
2022/10/19 07:41:33;;;;;;;15.10;7.68;;;;;;;8.38;100.00;102570.09;5032508;28;20025;-69
2022/10/19 07:43:59;;;;;;;11.95;7.75;;;;;;;8.36;100.00;102572.13;5031505;28;20036;-69
2022/10/19 07:46:35;;;;;;;15.00;7.57;;;;;;;8.33;100.00;102568.78;5032684;28;20021;-69
2022/10/19 07:49:03;;;;;;;14.07;7.82;;;;;;;8.39;100.00;102566.41;5032530;28;20104;-69
2022/10/19 07:51:29;;;;;;;14.70;7.43;;;;;;;8.40;100.00;102562.69;5032356;28;20354;-68
2022/10/19 07:53:54;;;;;;;13.95;7.55;;;;;;;8.48;100.00;102563.59;5032364;28;20040;-69
2022/10/19 07:56:22;;;;;;;10.93;7.45;;;;;;;8.51;100.00;102556.97;5032351;28;20064;-69
2022/10/19 07:58:49;;;;;;;15.38;7.05;;;;;;;8.55;100.00;102560.19;5032109;28;20459;-69
2022/10/19 08:01:17;;;;;;;14.23;7.57;;;;;;;8.57;100.00;102552.78;5030128;28;20029;-69
2022/10/19 08:03:43;;;;;;;13.85;7.85;;;;;;;8.61;100.00;102554.13;5032143;28;20033;-68
2022/10/19 08:06:11;;;;;;;18.17;7.90;;;;;;;8.67;100.00;102553.44;5032218;28;20033;-69
2022/10/19 08:08:37;;;;;;;15.20;7.43;;;;;;;8.71;100.00;102560.19;5032199;28;20079;-69
2022/10/19 08:11:30;;;;;;;15.18;7.85;;;;;;;8.79;100.00;102556.63;5030996;28;20022;-70
2022/10/19 08:13:58;;;;;;;13.38;7.90;;;;;;;8.84;100.00;102551.56;5029601;28;20076;-69
2022/10/19 08:16:27;;;;;;;18.58;8.85;;;;;;;8.90;100.00;102564.38;5032374;28;20073;-67
2022/10/19 08:18:56;;;;;;;16.60;8.80;;;;;;;8.96;100.00;102552.88;5030803;28;20021;-69
2022/10/19 08:21:22;;;;;;;17.42;8.77;;;;;;;9.02;100.00;102546.78;5032089;28;20101;-68
2022/10/19 08:23:47;;;;;;;18.33;8.60;;;;;;;9.03;100.00;102543.06;5030727;28;20108;-68
2022/10/19 08:26:12;;;;;;;17.90;8.27;;;;;;;9.09;100.00;102532.56;5032165;28;20052;-68
2022/10/19 08:28:37;;;;;;;18.70;8.07;;;;;;;9.12;100.00;102524.13;5016987;28;20041;-68
2022/10/19 08:31:18;;;;;;;20.48;8.52;;;;;;;9.17;100.00;102522.59;5019050;28;20045;-68
2022/10/19 08:33:43;;;;;;;16.35;8.52;;;;;;;9.22;100.00;102522.06;5019217;28;20020;-68
2022/10/19 08:36:11;;;;;;;17.65;8.90;;;;;;;9.29;100.00;102519.53;5031938;28;20034;-68
2022/10/19 08:38:37;;;;;;;23.17;8.55;;;;;;;9.32;100.00;102514.59;5032058;28;20026;-68
2022/10/19 08:41:39;;;;;;;13.35;7.25;;;;;;;9.40;100.00;102517.28;5023789;28;20504;-69
2022/10/19 08:44:29;;;;;;;12.48;6.78;;;;;;;9.47;100.00;102512.00;5029055;28;20084;-68
2022/10/19 08:47:02;;;;;;;17.10;7.18;;;;;;;9.54;100.00;102512.13;5025206;28;20026;-69
2022/10/19 08:49:30;;;;;;;15.70;6.95;;;;;;;9.60;100.00;102505.19;5017798;28;20413;-69
2022/10/19 08:52:04;;;;;;;15.50;7.25;;;;;;;9.68;100.00;102511.38;5012084;28;20026;-69
2022/10/19 08:54:40;;;;;;;18.20;6.95;;;;;;;9.78;100.00;102507.59;5012400;28;20037;-69
2022/10/19 08:57:14;;;;;;;16.40;6.38;;;;;;;9.85;100.00;102508.56;5016634;28;20763;-69
2022/10/19 08:59:48;;;;;;;13.63;6.53;;;;;;;9.94;100.00;102507.50;5016314;28;20034;-69
2022/10/19 09:02:20;;;;;;;15.52;6.50;;;;;;;10.00;100.00;102509.47;5013379;28;20034;-69
2022/10/19 09:05:01;;;;;;;14.57;6.70;;;;;;;10.09;100.00;102499.44;5015300;28;20453;-69
2022/10/19 09:07:31;;;;;;;15.40;6.25;;;;;;;10.17;100.00;102498.53;5023415;28;20457;-69
2022/10/19 09:10:13;;;;;;;20.02;6.13;;;;;;;10.20;100.00;102493.59;5015552;28;20022;-69
2022/10/19 09:12:49;;;;;;;16.65;5.88;;;;;;;10.26;100.00;102489.31;5018918;28;20104;-68
2022/10/19 09:15:18;;;;;;;16.73;6.40;;;;;;;10.30;100.00;102490.66;5015581;28;20041;-69
2022/10/19 09:17:43;;;;;;;18.40;6.28;;;;;;;10.35;100.00;102493.66;5021044;28;20100;-69
2022/10/19 09:20:16;;;;;;;18.60;6.60;;;;;;;10.45;100.00;102496.97;5015255;28;20065;-69
2022/10/19 09:22:43;;;;;;;17.15;6.35;;;;;;;10.52;100.00;102507.88;5015215;28;20030;-69
2022/10/19 09:25:20;;;;;;;15.38;5.40;;;;;;;10.57;100.00;102512.75;5015454;28;20449;-69
2022/10/19 09:27:57;;;;;;;17.52;5.70;;;;;;;10.63;100.00;102520.97;5028946;28;20044;-69
2022/10/19 09:30:23;;;;;;;17.55;5.35;;;;;;;10.69;100.00;102511.28;5033889;28;20111;-69
2022/10/19 09:32:56;;;;;;;17.13;5.50;;;;;;;10.74;100.00;102519.69;5034879;28;20057;-69
2022/10/19 09:35:27;;;;;;;13.68;5.32;;;;;;;10.81;100.00;102506.25;5035025;28;20110;-69
2022/10/19 09:37:54;;;;;;;19.05;5.32;;;;;;;10.86;100.00;102511.13;5033584;28;20116;-69
2022/10/19 09:40:23;;;;;;;17.17;5.10;;;;;;;10.92;100.00;102496.81;5034868;28;20103;-69
2022/10/19 09:42:55;;;;;;;8.73;4.30;;;;;;;10.95;100.00;102499.16;5023731;28;20030;-69
2022/10/19 09:45:44;;;;;;;14.77;4.43;;;;;;;11.01;100.00;102493.00;5029034;28;20025;-69
2022/10/19 09:48:22;;;;;;;13.98;4.32;;;;;;;11.04;100.00;102494.50;5015720;28;20033;-68
2022/10/19 09:50:53;;;;;;;11.07;4.10;;;;;;;11.10;100.00;102491.03;5013417;28;20026;-68
2022/10/19 09:53:20;;;;;;;10.02;3.97;;;;;;;11.16;100.00;102484.84;5021016;28;20030;-68
2022/10/19 09:55:59;;;;;;;12.05;3.85;;;;;;;11.21;100.00;102482.41;5029762;28;20163;-69
2022/10/19 09:58:27;;;;;;;14.77;4.05;;;;;;;11.26;100.00;102471.84;5021721;28;20112;-68
2022/10/19 10:00:54;;;;;;;14.10;3.83;;;;;;;11.31;100.00;102471.28;5020053;28;20041;-70
2022/10/19 10:03:27;;;;;;;15.57;3.70;;;;;;;11.35;100.00;102465.28;5022046;28;20033;-71
2022/10/19 10:05:54;;;;;;;10.57;3.92;;;;;;;11.41;100.00;102458.25;5031848;28;20029;-68
2022/10/19 10:08:24;;;;;;;12.77;3.78;;;;;;;11.47;100.00;102460.22;5029311;28;20061;-68
2022/10/19 10:10:56;;;;;;;15.48;3.47;;;;;;;11.56;100.00;102468.22;5030841;28;20067;-68
2022/10/19 10:13:24;;;;;;;11.40;3.45;;;;;;;11.58;100.00;102472.44;5033383;28;20104;-68
2022/10/19 10:16:00;;;;;;;15.85;3.88;;;;;;;11.63;100.00;102474.56;5034075;28;20338;-68
2022/10/19 10:18:27;;;;;;;12.73;3.40;;;;;;;11.60;100.00;102464.94;5032912;28;20048;-67
2022/10/19 10:21:00;;;;;;;12.50;3.28;;;;;;;11.68;100.00;102472.09;5033969;28;20033;-70
2022/10/19 10:23:34;;;;;;;11.45;3.88;;;;;;;11.75;100.00;102474.91;5028734;28;20029;-70
2022/10/19 10:26:01;;;;;;;11.52;3.90;;;;;;;11.77;100.00;102476.34;5026246;28;20049;-69
2022/10/19 10:28:28;;;;;;;12.55;3.40;;;;;;;11.86;100.00;102468.94;5033771;28;20044;-70
2022/10/19 10:30:59;;;;;;;12.68;3.85;;;;;;;11.90;100.00;102470.25;5031625;28;20049;-70
2022/10/19 10:33:27;;;;;;;14.35;3.67;;;;;;;11.94;100.00;102465.28;5030430;28;20052;-70
2022/10/19 10:36:02;;;;;;;12.10;3.92;;;;;;;11.98;100.00;102456.56;5023103;28;20029;-70
2022/10/19 10:38:32;;;;;;;10.43;3.58;;;;;;;12.05;100.00;102459.34;5024758;28;20472;-69
2022/10/19 10:41:11;;;;;;;11.60;3.65;;;;;;;12.06;100.00;102452.88;5028018;28;20037;-70
2022/10/19 10:43:51;;;;;;;15.85;3.78;;;;;;;12.12;100.00;102443.94;5016939;28;20075;-69
2022/10/19 10:46:22;;;;;;;8.05;3.40;;;;;;;12.14;100.00;102449.16;5014424;28;20054;-69
2022/10/19 10:48:54;;;;;;;11.77;3.55;;;;;;;12.16;100.00;102445.22;5012685;28;20056;-70
2022/10/19 10:51:46;;;;;;;13.02;3.90;;;;;;;12.21;100.00;102445.50;5015520;28;20034;-69
2022/10/19 10:54:23;;;;;;;11.98;3.85;;;;;;;12.22;100.00;102441.72;5018332;28;20499;-69
2022/10/19 10:57:11;;;;;;;9.95;3.97;;;;;;;12.31;100.00;102441.59;5012680;28;20033;-69
2022/10/19 10:59:59;;;;;;;11.75;4.07;;;;;;;12.39;100.00;102431.44;5013459;28;20741;-69
2022/10/19 11:02:36;;;;;;;11.52;3.92;;;;;;;12.39;100.00;102436.00;5025155;28;20112;-70
2022/10/19 11:05:21;;;;;;;15.70;4.13;;;;;;;12.47;100.00;102425.00;5023938;28;20025;-73
2022/10/19 11:07:52;;;;;;;11.68;4.32;;;;;;;12.48;100.00;102418.53;5014783;28;20354;-72
2022/10/19 11:10:29;;;;;;;12.18;4.32;;;;;;;12.52;100.00;102417.09;5024694;28;20060;-70
2022/10/19 11:13:09;;;;;;;13.52;4.32;;;;;;;12.55;100.00;102407.72;5019059;28;20142;-70
2022/10/19 11:15:43;;;;;;;11.57;3.95;;;;;;;12.60;100.00;102416.09;5029050;28;20025;-70
2022/10/19 11:18:20;;;;;;;9.70;3.85;;;;;;;12.65;100.00;102408.19;5030595;28;20033;-70
2022/10/19 11:21:10;;;;;;;17.67;4.55;;;;;;;12.70;100.00;102400.28;5029491;28;20484;-70
2022/10/19 11:24:09;;;;;;;10.77;4.35;;;;;;;12.76;100.00;102393.22;5031174;28;20026;-70